createdAt,value
2018-09-15T00:01:36.380Z,15.10
2018-09-15T00:06:30.731Z,15.30
2018-09-15T00:11:25.345Z,15.30
2018-09-15T00:16:19.626Z,15.30
2018-09-15T00:21:14.078Z,15.30
2018-09-15T00:26:07.978Z,15.40
2018-09-15T00:31:03.631Z,15.40
2018-09-15T00:35:58.179Z,15.40
2018-09-15T00:40:52.815Z,15.30
2018-09-15T00:45:47.217Z,15.40
2018-09-15T00:50:42.271Z,15.30
2018-09-15T00:55:36.532Z,15.30
2018-09-15T01:00:32.906Z,15.30
2018-09-15T01:05:27.818Z,15.20
2018-09-15T01:10:22.930Z,15.10
2018-09-15T01:15:17.090Z,15.10
2018-09-15T01:20:11.623Z,14.90
2018-09-15T01:25:06.024Z,14.80
2018-09-15T01:30:00.885Z,14.80
2018-09-15T01:34:55.671Z,14.60
2018-09-15T01:39:50.080Z,14.60
2018-09-15T01:44:44.758Z,14.40
2018-09-15T01:49:38.859Z,14.30
2018-09-15T01:54:33.718Z,14.30
2018-09-15T01:59:28.354Z,14.40
2018-09-15T02:04:22.658Z,14.40
2018-09-15T02:09:16.979Z,14.30
2018-09-15T02:14:26.760Z,14.20
2018-09-15T02:19:35.772Z,14.10
2018-09-15T02:24:30.291Z,14.00
2018-09-15T02:29:31.757Z,14.00
2018-09-15T02:34:34.070Z,14.00
2018-09-15T02:39:37.431Z,14.00
2018-09-15T02:44:34.262Z,13.90
2018-09-15T02:49:28.369Z,13.80
2018-09-15T02:54:22.368Z,13.80
2018-09-15T02:59:16.373Z,13.80
2018-09-15T03:04:10.610Z,13.80
2018-09-15T03:09:07.834Z,13.90
2018-09-15T03:14:03.147Z,13.90
2018-09-15T03:18:57.350Z,14.00
2018-09-15T03:23:52.008Z,14.10
2018-09-15T03:28:46.287Z,14.10
2018-09-15T03:33:41.388Z,14.00
2018-09-15T03:38:35.596Z,13.90
2018-09-15T03:43:30.551Z,14.00
2018-09-15T03:48:24.825Z,13.90
2018-09-15T03:53:18.883Z,14.00
2018-09-15T03:58:12.986Z,14.00
2018-09-15T04:03:07.715Z,14.00
2018-09-15T04:08:02.096Z,13.90
2018-09-15T04:12:56.582Z,13.80
2018-09-15T04:17:51.411Z,13.80
2018-09-15T04:22:46.211Z,13.80
2018-09-15T04:27:40.783Z,13.70
2018-09-15T04:32:37.196Z,13.60
2018-09-15T04:37:31.232Z,13.40
2018-09-15T04:42:25.667Z,13.50
2018-09-15T04:47:19.692Z,13.60
2018-09-15T04:52:13.902Z,13.60
2018-09-15T04:57:08.587Z,13.60
2018-09-15T05:02:10.021Z,13.60
2018-09-15T05:07:12.139Z,13.70
2018-09-15T05:12:15.247Z,13.70
2018-09-15T05:17:17.255Z,13.60
2018-09-15T05:22:19.489Z,13.80
2018-09-15T05:27:14.906Z,14.10
2018-09-15T05:32:08.915Z,14.30
2018-09-15T05:37:06.235Z,14.50
2018-09-15T05:42:01.391Z,14.90
2018-09-15T05:47:03.674Z,15.20
2018-09-15T05:52:05.025Z,15.30
2018-09-15T05:57:00.440Z,15.30
2018-09-15T06:01:54.764Z,15.30
2018-09-15T06:06:48.901Z,15.40
2018-09-15T06:11:43.267Z,15.70
2018-09-15T06:16:45.669Z,15.70
2018-09-15T06:21:40.854Z,15.60
2018-09-15T06:26:35.246Z,15.40
2018-09-15T06:31:29.697Z,15.60
2018-09-15T06:36:23.978Z,16.10
2018-09-15T06:41:18.705Z,16.40
2018-09-15T06:46:12.840Z,16.70
2018-09-15T06:51:07.211Z,16.80
2018-09-15T06:56:01.189Z,16.90
2018-09-15T07:00:57.034Z,17.00
2018-09-15T07:05:51.307Z,17.20
2018-09-15T07:10:45.711Z,17.40
2018-09-15T07:15:39.858Z,17.70
2018-09-15T07:20:34.370Z,18.20
2018-09-15T07:25:28.556Z,18.70
2018-09-15T07:30:23.419Z,19.50
2018-09-15T07:35:17.572Z,20.10
2018-09-15T07:40:11.960Z,20.20
2018-09-15T07:45:07.386Z,21.10
2018-09-15T07:50:03.529Z,22.20
2018-09-15T07:54:57.896Z,24.70
2018-09-15T07:59:52.442Z,24.70
2018-09-15T08:04:46.504Z,25.60
2018-09-15T08:09:40.816Z,27.60
2018-09-15T08:14:35.231Z,26.80
2018-09-15T08:19:30.686Z,26.20
2018-09-15T08:24:25.033Z,26.60
2018-09-15T08:29:19.688Z,26.90
2018-09-15T08:34:13.760Z,28.20
2018-09-15T08:39:16.302Z,28.00
2018-09-15T08:44:10.966Z,27.70
2018-09-15T08:49:06.466Z,26.40
2018-09-15T08:54:01.285Z,26.00
2018-09-15T08:58:55.546Z,26.30
2018-09-15T09:03:57.478Z,27.70
2018-09-15T09:08:52.485Z,27.70
2018-09-15T09:13:46.919Z,27.60
2018-09-15T09:18:41.481Z,29.40
2018-09-15T09:23:37.284Z,31.60
2018-09-15T09:28:32.138Z,32.30
2018-09-15T09:33:26.132Z,31.70
2018-09-15T09:38:21.187Z,31.40
2018-09-15T09:43:15.434Z,32.90
2018-09-15T09:48:17.408Z,30.70
2018-09-15T09:53:34.315Z,30.60
2018-09-15T09:58:29.394Z,32.40
2018-09-15T10:03:23.769Z,35.30
2018-09-15T10:08:18.368Z,36.90
2018-09-15T10:13:12.523Z,37.80
2018-09-15T10:18:06.730Z,35.60
2018-09-15T10:23:00.805Z,31.40
2018-09-15T10:27:55.447Z,29.30
2018-09-15T10:32:49.845Z,27.90
2018-09-15T10:37:44.502Z,30.80
2018-09-15T10:42:39.385Z,30.80
2018-09-15T10:47:33.484Z,29.10
2018-09-15T10:52:27.718Z,28.60
2018-09-15T10:57:28.876Z,30.20
2018-09-15T11:02:46.014Z,29.80
2018-09-15T11:07:41.562Z,27.40
2018-09-15T11:12:35.659Z,25.60
2018-09-15T11:17:30.706Z,24.80
2018-09-15T11:22:24.659Z,26.80
2018-09-15T11:27:26.982Z,27.50
2018-09-15T11:32:21.247Z,27.20
2018-09-15T11:37:15.702Z,26.60
2018-09-15T11:42:10.440Z,26.30
2018-09-15T11:47:06.284Z,26.10
2018-09-15T11:52:07.923Z,25.70
2018-09-15T11:57:10.008Z,25.70
2018-09-15T12:02:13.112Z,25.40
2018-09-15T12:07:16.018Z,25.40
2018-09-15T12:12:10.739Z,24.80
2018-09-15T12:17:08.065Z,24.70
2018-09-15T12:22:04.910Z,24.40
2018-09-15T12:26:58.885Z,24.30
2018-09-15T12:31:53.607Z,24.40
2018-09-15T12:36:48.373Z,24.80
2018-09-15T12:41:44.070Z,24.60
2018-09-15T12:46:38.750Z,24.40
2018-09-15T12:51:41.024Z,24.30
2018-09-15T12:56:42.823Z,24.50
2018-09-15T13:01:45.214Z,24.60
2018-09-15T13:06:47.323Z,24.40
2018-09-15T13:11:49.287Z,24.30
2018-09-15T13:17:06.360Z,24.10
2018-09-15T13:22:01.582Z,24.20
2018-09-15T13:26:56.476Z,23.90
2018-09-15T13:31:51.315Z,24.10
2018-09-15T13:36:45.121Z,24.40
2018-09-15T13:41:46.576Z,24.50
2018-09-15T13:46:41.035Z,24.60
2018-09-15T13:51:34.975Z,24.20
2018-09-15T13:56:29.483Z,24.20
2018-09-15T14:01:23.741Z,24.10
2018-09-15T14:06:18.473Z,24.10
2018-09-15T14:11:13.056Z,24.00
2018-09-15T14:16:08.151Z,23.80
2018-09-15T14:21:03.560Z,23.90
2018-09-15T14:25:59.848Z,23.90
2018-09-15T14:30:54.465Z,24.30
2018-09-15T14:35:48.874Z,24.30
2018-09-15T14:40:44.321Z,24.00
2018-09-15T14:45:39.226Z,23.90
2018-09-15T14:50:33.983Z,23.40
2018-09-15T14:55:28.729Z,23.20
2018-09-15T15:00:23.272Z,23.20
2018-09-15T15:05:17.865Z,23.10
2018-09-15T15:10:11.950Z,23.00
2018-09-15T15:15:06.645Z,22.90
2018-09-15T15:20:00.928Z,22.80
2018-09-15T15:25:04.010Z,22.50
2018-09-15T15:29:58.748Z,22.40
2018-09-15T15:34:53.420Z,22.20
2018-09-15T15:39:48.758Z,22.10
2018-09-15T15:44:43.520Z,21.90
2018-09-15T15:49:45.948Z,21.80
2018-09-15T15:54:48.013Z,21.60
2018-09-15T15:59:49.824Z,21.50
2018-09-15T16:04:44.743Z,21.30
2018-09-15T16:09:39.103Z,21.10
2018-09-15T16:14:33.458Z,20.90
2018-09-15T16:19:28.063Z,20.80
2018-09-15T16:24:30.099Z,20.60
2018-09-15T16:29:25.654Z,20.50
2018-09-15T16:34:20.376Z,20.50
2018-09-15T16:39:15.230Z,20.30
2018-09-15T16:44:09.445Z,20.20
2018-09-15T16:49:12.157Z,20.10
2018-09-15T16:54:07.620Z,20.00
2018-09-15T16:59:01.801Z,19.80
2018-09-15T17:03:56.943Z,19.70
2018-09-15T17:08:51.238Z,19.60
2018-09-15T17:13:46.360Z,19.40
2018-09-15T17:18:42.033Z,19.20
2018-09-15T17:23:36.689Z,19.00
2018-09-15T17:28:31.191Z,18.80
2018-09-15T17:33:25.282Z,18.60
2018-09-15T17:38:19.967Z,18.40
2018-09-15T17:43:15.254Z,18.30
2018-09-15T17:48:10.882Z,18.10
2018-09-15T17:53:06.105Z,17.90
2018-09-15T17:58:00.860Z,17.70
2018-09-15T18:02:55.527Z,17.60
2018-09-15T18:07:51.159Z,17.50
2018-09-15T18:12:52.712Z,17.40
2018-09-15T18:17:54.951Z,17.20
2018-09-15T18:22:49.696Z,17.10
2018-09-15T18:27:44.278Z,17.00
2018-09-15T18:32:39.270Z,16.80
2018-09-15T18:37:33.852Z,16.70
2018-09-15T18:42:52.194Z,16.60
2018-09-15T18:48:10.248Z,16.50
2018-09-15T18:53:28.904Z,16.30
2018-09-15T18:58:24.491Z,16.20
2018-09-15T19:03:19.711Z,16.00
2018-09-15T19:08:14.973Z,15.80
2018-09-15T19:13:09.455Z,15.70
2018-09-15T19:18:04.295Z,15.60
2018-09-15T19:22:59.834Z,15.50
2018-09-15T19:27:54.514Z,15.40
2018-09-15T19:32:48.996Z,15.10
2018-09-15T19:37:43.512Z,14.90
2018-09-15T19:42:38.056Z,14.80
2018-09-15T19:47:33.062Z,14.80
2018-09-15T19:52:27.663Z,14.70
2018-09-15T19:57:29.222Z,14.70
2018-09-15T20:02:24.478Z,14.50
2018-09-15T20:07:19.533Z,14.30
2018-09-15T20:12:13.849Z,14.20
2018-09-15T20:17:06.765Z,14.20
2018-09-15T20:21:59.524Z,14.20
2018-09-15T20:26:54.251Z,14.20
2018-09-15T20:31:50.047Z,14.20
2018-09-15T20:36:45.827Z,14.10
2018-09-15T20:41:40.214Z,14.10
2018-09-15T20:46:34.600Z,14.00
2018-09-15T20:51:30.029Z,14.00
2018-09-15T20:56:24.188Z,14.00
2018-09-15T21:01:18.489Z,14.00
2018-09-15T21:06:13.342Z,13.90
2018-09-15T21:11:07.957Z,13.80
2018-09-15T21:16:02.335Z,13.70
2018-09-15T21:21:05.422Z,13.70
2018-09-15T21:26:00.320Z,13.70
2018-09-15T21:30:54.831Z,13.60
2018-09-15T21:35:50.008Z,13.60
2018-09-15T21:40:43.995Z,13.50
2018-09-15T21:45:39.509Z,13.40
2018-09-15T21:50:34.297Z,13.30
2018-09-15T21:55:28.415Z,13.20
2018-09-15T22:00:22.930Z,13.20
2018-09-15T22:05:17.803Z,13.20
2018-09-15T22:10:12.792Z,13.10
2018-09-15T22:15:12.066Z,13.10
2018-09-15T22:20:06.364Z,13.10
2018-09-15T22:25:03.648Z,13.10
2018-09-15T22:29:58.143Z,13.00
2018-09-15T22:34:54.196Z,13.00
2018-09-15T22:39:48.638Z,13.00
2018-09-15T22:44:44.705Z,13.00
2018-09-15T22:49:39.865Z,12.90
2018-09-15T22:54:36.304Z,12.90
2018-09-15T22:59:30.815Z,12.90
2018-09-15T23:04:26.179Z,12.90
2018-09-15T23:09:22.327Z,13.00
2018-09-15T23:14:17.243Z,13.00
2018-09-15T23:19:13.930Z,12.90
2018-09-15T23:24:10.357Z,12.90
2018-09-15T23:29:04.940Z,12.90
2018-09-15T23:33:59.903Z,12.90
2018-09-15T23:38:54.844Z,12.90
2018-09-15T23:43:50.316Z,12.90
2018-09-15T23:48:47.079Z,12.90
2018-09-15T23:53:41.481Z,12.90
2018-09-15T23:58:35.796Z,12.90
